<?xml version="1.0" encoding="UTF-8" standalone="no" ?>
<gpx xmlns="http://www.topografix.com/GPX/1/1" xmlns:xsi="http://www.w3.org/2001/XMLSchema-instance" xsi:schemaLocation="http://www.topografix.com/GPX/1/1 http://www.topografix.com/GPX/1/1/gpx.xsd" version="1.1" creator="VisuGPX - https://www.visugpx.com">
  <metadata>
    <name>puy valador étang de querigut</name>
  </metadata>
  <wpt lat="42.58395" lon="2.06776">
    <ele>1835.1</ele>
    <name><![CDATA[Parking]]></name>
  </wpt>
  <wpt lat="42.58701" lon="2.05306">
    <ele>1774.2</ele>
    <name><![CDATA[Route]]></name>
  </wpt>
  <wpt lat="42.59159" lon="2.06028">
    <ele>1827.3</ele>
    <name><![CDATA[Bifurcation au panneau]]></name>
  </wpt>
  <wpt lat="42.59337" lon="2.05932">
    <ele>1896.3</ele>
    <name><![CDATA[Chemin de gauche]]></name>
  </wpt>
  <wpt lat="42.59408" lon="2.04965">
    <ele>1959.8</ele>
    <name><![CDATA[Chemin principal]]></name>
  </wpt>
  <wpt lat="42.59813" lon="2.03659">
    <ele>2210.1</ele>
    <name><![CDATA[Cabane]]></name>
  </wpt>
  <wpt lat="42.59987" lon="2.03327">
    <ele>2319.7</ele>
    <name><![CDATA[Fin de balisage]]></name>
  </wpt>
  <wpt lat="42.60464" lon="2.03085">
    <ele>2462.3</ele>
    <name><![CDATA[Pic Del Pam]]></name>
  </wpt>
  <wpt lat="42.60053" lon="2.02545">
    <ele>2424.5</ele>
    <name><![CDATA[Serra Dels Alarbs]]></name>
  </wpt>
  <wpt lat="42.59497" lon="2.01049">
    <ele>2196.8</ele>
    <name><![CDATA[GR]]></name>
  </wpt>
  <wpt lat="42.59027" lon="2.0121">
    <ele>2120.8</ele>
    <name><![CDATA[Obliquer à gauche]]></name>
  </wpt>
  <wpt lat="42.58807" lon="2.02018">
    <ele>2079</ele>
    <name><![CDATA[Lac Balmette]]></name>
  </wpt>
  <wpt lat="42.58919" lon="2.03815">
    <ele>1927.5</ele>
    <name><![CDATA[Changement de sentier]]></name>
  </wpt>
  <wpt lat="42.58389" lon="2.0679">
    <ele>1835.9</ele>
    <name><![CDATA[Parking]]></name>
  </wpt>
  <wpt lat="42.64895" lon="2.11615">
    <ele>1453.6</ele>
    <name><![CDATA[Parking village vacances]]></name>
  </wpt>
  <wpt lat="42.67445" lon="2.11913">
    <ele>1574.2</ele>
    <name><![CDATA[Intersection sentiers]]></name>
  </wpt>
  <wpt lat="42.67434" lon="2.11768">
    <ele>1560.7</ele>
    <name><![CDATA[Piste Forestière / GRP Donezan]]></name>
  </wpt>
  <wpt lat="42.67453" lon="2.08076">
    <ele>1730.5</ele>
    <name><![CDATA[Intersection Sentier / Abandon GRP]]></name>
  </wpt>
  <wpt lat="42.64895" lon="2.11615">
    <ele>1453.6</ele>
    <name><![CDATA[Parking village vacances]]></name>
  </wpt>
  <trk>
    <name><![CDATA[De Puyvalador à l'Étang de Quérigut]]></name>
    <trkseg>
      <trkpt lat="42.64895" lon="2.11615">
        <ele>1452</ele>
        <time>2020-07-03T09:30:13 02:00</time>
      </trkpt>
      <trkpt lat="42.64877" lon="2.11648">
        <ele>1451</ele>
        <time>2020-07-03T09:30:18 02:00</time>
      </trkpt>
      <trkpt lat="42.64954" lon="2.11677">
        <ele>1456</ele>
        <time>2020-07-03T09:30:23 02:00</time>
      </trkpt>
      <trkpt lat="42.64972" lon="2.11677">
        <ele>1457</ele>
        <time>2020-07-03T09:30:28 02:00</time>
      </trkpt>
      <trkpt lat="42.64986" lon="2.11668">
        <ele>1458</ele>
        <time>2020-07-03T09:30:33 02:00</time>
      </trkpt>
      <trkpt lat="42.64997" lon="2.11639">
        <ele>1458</ele>
        <time>2020-07-03T09:30:38 02:00</time>
      </trkpt>
      <trkpt lat="42.65021" lon="2.116">
        <ele>1459</ele>
        <time>2020-07-03T09:30:43 02:00</time>
      </trkpt>
      <trkpt lat="42.65055" lon="2.11566">
        <ele>1464</ele>
        <time>2020-07-03T09:30:48 02:00</time>
      </trkpt>
      <trkpt lat="42.6512" lon="2.11522">
        <ele>1469</ele>
        <time>2020-07-03T09:30:53 02:00</time>
      </trkpt>
      <trkpt lat="42.6524" lon="2.11443">
        <ele>1478</ele>
        <time>2020-07-03T09:30:58 02:00</time>
      </trkpt>
      <trkpt lat="42.65267" lon="2.11434">
        <ele>1480</ele>
        <time>2020-07-03T09:31:03 02:00</time>
      </trkpt>
      <trkpt lat="42.65303" lon="2.11441">
        <ele>1485</ele>
        <time>2020-07-03T09:31:08 02:00</time>
      </trkpt>
      <trkpt lat="42.65425" lon="2.11396">
        <ele>1501</ele>
        <time>2020-07-03T09:31:13 02:00</time>
      </trkpt>
      <trkpt lat="42.65498" lon="2.11372">
        <ele>1510</ele>
        <time>2020-07-03T09:31:18 02:00</time>
      </trkpt>
      <trkpt lat="42.6557" lon="2.11369">
        <ele>1517</ele>
        <time>2020-07-03T09:31:23 02:00</time>
      </trkpt>
      <trkpt lat="42.65624" lon="2.11362">
        <ele>1520</ele>
        <time>2020-07-03T09:31:28 02:00</time>
      </trkpt>
      <trkpt lat="42.65732" lon="2.11373">
        <ele>1521</ele>
        <time>2020-07-03T09:31:33 02:00</time>
      </trkpt>
      <trkpt lat="42.65779" lon="2.11372">
        <ele>1525</ele>
        <time>2020-07-03T09:31:38 02:00</time>
      </trkpt>
      <trkpt lat="42.65823" lon="2.11364">
        <ele>1524</ele>
        <time>2020-07-03T09:31:43 02:00</time>
      </trkpt>
      <trkpt lat="42.6592" lon="2.11336">
        <ele>1528</ele>
        <time>2020-07-03T09:31:48 02:00</time>
      </trkpt>
      <trkpt lat="42.65988" lon="2.11195">
        <ele>1535</ele>
        <time>2020-07-03T09:31:53 02:00</time>
      </trkpt>
      <trkpt lat="42.66007" lon="2.11187">
        <ele>1537</ele>
        <time>2020-07-03T09:31:58 02:00</time>
      </trkpt>
      <trkpt lat="42.6602" lon="2.11209">
        <ele>1538</ele>
        <time>2020-07-03T09:32:03 02:00</time>
      </trkpt>
      <trkpt lat="42.66038" lon="2.11278">
        <ele>1537</ele>
        <time>2020-07-03T09:32:08 02:00</time>
      </trkpt>
      <trkpt lat="42.66036" lon="2.11339">
        <ele>1539</ele>
        <time>2020-07-03T09:32:13 02:00</time>
      </trkpt>
      <trkpt lat="42.66049" lon="2.11397">
        <ele>1544</ele>
        <time>2020-07-03T09:32:18 02:00</time>
      </trkpt>
      <trkpt lat="42.66067" lon="2.11384">
        <ele>1547</ele>
        <time>2020-07-03T09:32:23 02:00</time>
      </trkpt>
      <trkpt lat="42.66099" lon="2.11331">
        <ele>1553</ele>
        <time>2020-07-03T09:32:28 02:00</time>
      </trkpt>
      <trkpt lat="42.66127" lon="2.11323">
        <ele>1556</ele>
        <time>2020-07-03T09:32:33 02:00</time>
      </trkpt>
      <trkpt lat="42.66164" lon="2.11322">
        <ele>1560</ele>
        <time>2020-07-03T09:32:38 02:00</time>
      </trkpt>
      <trkpt lat="42.6619" lon="2.11338">
        <ele>1565</ele>
        <time>2020-07-03T09:32:43 02:00</time>
      </trkpt>
      <trkpt lat="42.66212" lon="2.11356">
        <ele>1569</ele>
        <time>2020-07-03T09:32:48 02:00</time>
      </trkpt>
      <trkpt lat="42.66252" lon="2.11392">
        <ele>1576</ele>
        <time>2020-07-03T09:32:53 02:00</time>
      </trkpt>
      <trkpt lat="42.6627" lon="2.11442">
        <ele>1576</ele>
        <time>2020-07-03T09:32:58 02:00</time>
      </trkpt>
      <trkpt lat="42.66324" lon="2.11475">
        <ele>1571</ele>
        <time>2020-07-03T09:33:03 02:00</time>
      </trkpt>
      <trkpt lat="42.66412" lon="2.11522">
        <ele>1573</ele>
        <time>2020-07-03T09:33:08 02:00</time>
      </trkpt>
      <trkpt lat="42.66436" lon="2.11567">
        <ele>1568</ele>
        <time>2020-07-03T09:33:13 02:00</time>
      </trkpt>
      <trkpt lat="42.66463" lon="2.11596">
        <ele>1569</ele>
        <time>2020-07-03T09:33:18 02:00</time>
      </trkpt>
      <trkpt lat="42.66586" lon="2.11643">
        <ele>1570</ele>
        <time>2020-07-03T09:33:23 02:00</time>
      </trkpt>
      <trkpt lat="42.66633" lon="2.1162">
        <ele>1580</ele>
        <time>2020-07-03T09:33:28 02:00</time>
      </trkpt>
      <trkpt lat="42.66674" lon="2.11631">
        <ele>1584</ele>
        <time>2020-07-03T09:33:33 02:00</time>
      </trkpt>
      <trkpt lat="42.66697" lon="2.11654">
        <ele>1586</ele>
        <time>2020-07-03T09:33:38 02:00</time>
      </trkpt>
      <trkpt lat="42.66757" lon="2.11642">
        <ele>1597</ele>
        <time>2020-07-03T09:33:43 02:00</time>
      </trkpt>
      <trkpt lat="42.66787" lon="2.11659">
        <ele>1600</ele>
        <time>2020-07-03T09:33:48 02:00</time>
      </trkpt>
      <trkpt lat="42.66808" lon="2.11704">
        <ele>1604</ele>
        <time>2020-07-03T09:33:53 02:00</time>
      </trkpt>
      <trkpt lat="42.66875" lon="2.11811">
        <ele>1601</ele>
        <time>2020-07-03T09:33:58 02:00</time>
      </trkpt>
      <trkpt lat="42.66892" lon="2.11843">
        <ele>1598</ele>
        <time>2020-07-03T09:34:03 02:00</time>
      </trkpt>
      <trkpt lat="42.66922" lon="2.1185">
        <ele>1596</ele>
        <time>2020-07-03T09:34:08 02:00</time>
      </trkpt>
      <trkpt lat="42.66933" lon="2.11861">
        <ele>1595</ele>
        <time>2020-07-03T09:34:13 02:00</time>
      </trkpt>
      <trkpt lat="42.66968" lon="2.11847">
        <ele>1594</ele>
        <time>2020-07-03T09:34:18 02:00</time>
      </trkpt>
      <trkpt lat="42.66986" lon="2.11849">
        <ele>1593</ele>
        <time>2020-07-03T09:34:23 02:00</time>
      </trkpt>
      <trkpt lat="42.67016" lon="2.11862">
        <ele>1590</ele>
        <time>2020-07-03T09:34:28 02:00</time>
      </trkpt>
      <trkpt lat="42.67049" lon="2.11933">
        <ele>1587</ele>
        <time>2020-07-03T09:34:33 02:00</time>
      </trkpt>
      <trkpt lat="42.6718" lon="2.11929">
        <ele>1581</ele>
        <time>2020-07-03T09:34:38 02:00</time>
      </trkpt>
      <trkpt lat="42.67322" lon="2.11933">
        <ele>1581</ele>
        <time>2020-07-03T09:34:43 02:00</time>
      </trkpt>
      <trkpt lat="42.67383" lon="2.1194">
        <ele>1576</ele>
        <time>2020-07-03T09:34:48 02:00</time>
      </trkpt>
      <trkpt lat="42.67426" lon="2.1193">
        <ele>1573</ele>
        <time>2020-07-03T09:34:53 02:00</time>
      </trkpt>
      <trkpt lat="42.67445" lon="2.11913">
        <ele>1571</ele>
        <time>2020-07-03T09:34:58 02:00</time>
      </trkpt>
      <trkpt lat="42.67468" lon="2.11843">
        <ele>1564</ele>
        <time>2020-07-03T09:35:03 02:00</time>
      </trkpt>
      <trkpt lat="42.67459" lon="2.1183">
        <ele>1562</ele>
        <time>2020-07-03T09:35:08 02:00</time>
      </trkpt>
      <trkpt lat="42.67429" lon="2.11814">
        <ele>1560</ele>
        <time>2020-07-03T09:35:13 02:00</time>
      </trkpt>
      <trkpt lat="42.67434" lon="2.11768">
        <ele>1554</ele>
        <time>2020-07-03T09:35:18 02:00</time>
      </trkpt>
      <trkpt lat="42.67397" lon="2.11769">
        <ele>1557</ele>
        <time>2020-07-03T09:35:23 02:00</time>
      </trkpt>
      <trkpt lat="42.67366" lon="2.1177">
        <ele>1558</ele>
        <time>2020-07-03T09:35:28 02:00</time>
      </trkpt>
      <trkpt lat="42.67336" lon="2.11758">
        <ele>1559</ele>
        <time>2020-07-03T09:35:33 02:00</time>
      </trkpt>
      <trkpt lat="42.67296" lon="2.11742">
        <ele>1561</ele>
        <time>2020-07-03T09:35:38 02:00</time>
      </trkpt>
      <trkpt lat="42.6727" lon="2.11735">
        <ele>1563</ele>
        <time>2020-07-03T09:35:43 02:00</time>
      </trkpt>
      <trkpt lat="42.67232" lon="2.11703">
        <ele>1565</ele>
        <time>2020-07-03T09:35:48 02:00</time>
      </trkpt>
      <trkpt lat="42.67191" lon="2.11618">
        <ele>1571</ele>
        <time>2020-07-03T09:35:53 02:00</time>
      </trkpt>
      <trkpt lat="42.67181" lon="2.11565">
        <ele>1573</ele>
        <time>2020-07-03T09:35:58 02:00</time>
      </trkpt>
      <trkpt lat="42.67188" lon="2.11492">
        <ele>1579</ele>
        <time>2020-07-03T09:36:03 02:00</time>
      </trkpt>
      <trkpt lat="42.67246" lon="2.1137">
        <ele>1585</ele>
        <time>2020-07-03T09:36:08 02:00</time>
      </trkpt>
      <trkpt lat="42.67265" lon="2.11325">
        <ele>1585</ele>
        <time>2020-07-03T09:36:13 02:00</time>
      </trkpt>
      <trkpt lat="42.67252" lon="2.1119">
        <ele>1589</ele>
        <time>2020-07-03T09:36:18 02:00</time>
      </trkpt>
      <trkpt lat="42.67229" lon="2.11149">
        <ele>1593</ele>
        <time>2020-07-03T09:36:23 02:00</time>
      </trkpt>
      <trkpt lat="42.67214" lon="2.1105">
        <ele>1597</ele>
        <time>2020-07-03T09:36:28 02:00</time>
      </trkpt>
      <trkpt lat="42.67235" lon="2.10984">
        <ele>1602</ele>
        <time>2020-07-03T09:36:33 02:00</time>
      </trkpt>
      <trkpt lat="42.67269" lon="2.10924">
        <ele>1601</ele>
        <time>2020-07-03T09:36:38 02:00</time>
      </trkpt>
      <trkpt lat="42.6728" lon="2.1087">
        <ele>1605</ele>
        <time>2020-07-03T09:36:43 02:00</time>
      </trkpt>
      <trkpt lat="42.67288" lon="2.10782">
        <ele>1611</ele>
        <time>2020-07-03T09:36:48 02:00</time>
      </trkpt>
      <trkpt lat="42.67288" lon="2.10724">
        <ele>1615</ele>
        <time>2020-07-03T09:36:53 02:00</time>
      </trkpt>
      <trkpt lat="42.67303" lon="2.10583">
        <ele>1623</ele>
        <time>2020-07-03T09:36:58 02:00</time>
      </trkpt>
      <trkpt lat="42.67383" lon="2.1049">
        <ele>1631</ele>
        <time>2020-07-03T09:37:03 02:00</time>
      </trkpt>
      <trkpt lat="42.6743" lon="2.10419">
        <ele>1637</ele>
        <time>2020-07-03T09:37:08 02:00</time>
      </trkpt>
      <trkpt lat="42.67475" lon="2.10327">
        <ele>1642</ele>
        <time>2020-07-03T09:37:13 02:00</time>
      </trkpt>
      <trkpt lat="42.67484" lon="2.10252">
        <ele>1648</ele>
        <time>2020-07-03T09:37:18 02:00</time>
      </trkpt>
      <trkpt lat="42.67449" lon="2.10179">
        <ele>1652</ele>
        <time>2020-07-03T09:37:23 02:00</time>
      </trkpt>
      <trkpt lat="42.67383" lon="2.10143">
        <ele>1659</ele>
        <time>2020-07-03T09:37:28 02:00</time>
      </trkpt>
      <trkpt lat="42.6736" lon="2.10106">
        <ele>1661</ele>
        <time>2020-07-03T09:37:33 02:00</time>
      </trkpt>
      <trkpt lat="42.6735" lon="2.10061">
        <ele>1662</ele>
        <time>2020-07-03T09:37:38 02:00</time>
      </trkpt>
      <trkpt lat="42.67404" lon="2.09939">
        <ele>1668</ele>
        <time>2020-07-03T09:37:43 02:00</time>
      </trkpt>
      <trkpt lat="42.67446" lon="2.09808">
        <ele>1674</ele>
        <time>2020-07-03T09:37:48 02:00</time>
      </trkpt>
      <trkpt lat="42.67442" lon="2.09768">
        <ele>1678</ele>
        <time>2020-07-03T09:37:53 02:00</time>
      </trkpt>
      <trkpt lat="42.67414" lon="2.09732">
        <ele>1681</ele>
        <time>2020-07-03T09:37:58 02:00</time>
      </trkpt>
      <trkpt lat="42.67373" lon="2.09724">
        <ele>1681</ele>
        <time>2020-07-03T09:38:03 02:00</time>
      </trkpt>
      <trkpt lat="42.67324" lon="2.09725">
        <ele>1680</ele>
        <time>2020-07-03T09:38:08 02:00</time>
      </trkpt>
      <trkpt lat="42.67273" lon="2.09757">
        <ele>1681</ele>
        <time>2020-07-03T09:38:13 02:00</time>
      </trkpt>
      <trkpt lat="42.67243" lon="2.09767">
        <ele>1682</ele>
        <time>2020-07-03T09:38:18 02:00</time>
      </trkpt>
      <trkpt lat="42.67209" lon="2.09767">
        <ele>1684</ele>
        <time>2020-07-03T09:38:23 02:00</time>
      </trkpt>
      <trkpt lat="42.67181" lon="2.09754">
        <ele>1685</ele>
        <time>2020-07-03T09:38:28 02:00</time>
      </trkpt>
      <trkpt lat="42.67155" lon="2.09742">
        <ele>1686</ele>
        <time>2020-07-03T09:38:33 02:00</time>
      </trkpt>
      <trkpt lat="42.67124" lon="2.09733">
        <ele>1688</ele>
        <time>2020-07-03T09:38:38 02:00</time>
      </trkpt>
      <trkpt lat="42.67061" lon="2.09694">
        <ele>1689</ele>
        <time>2020-07-03T09:38:43 02:00</time>
      </trkpt>
      <trkpt lat="42.67027" lon="2.09652">
        <ele>1690</ele>
        <time>2020-07-03T09:38:48 02:00</time>
      </trkpt>
      <trkpt lat="42.66963" lon="2.0952">
        <ele>1696</ele>
        <time>2020-07-03T09:38:53 02:00</time>
      </trkpt>
      <trkpt lat="42.66959" lon="2.09461">
        <ele>1697</ele>
        <time>2020-07-03T09:38:58 02:00</time>
      </trkpt>
      <trkpt lat="42.66961" lon="2.0941">
        <ele>1698</ele>
        <time>2020-07-03T09:39:03 02:00</time>
      </trkpt>
      <trkpt lat="42.66985" lon="2.09276">
        <ele>1700</ele>
        <time>2020-07-03T09:39:08 02:00</time>
      </trkpt>
      <trkpt lat="42.66984" lon="2.09235">
        <ele>1703</ele>
        <time>2020-07-03T09:39:13 02:00</time>
      </trkpt>
      <trkpt lat="42.66994" lon="2.09191">
        <ele>1704</ele>
        <time>2020-07-03T09:39:18 02:00</time>
      </trkpt>
      <trkpt lat="42.67043" lon="2.09148">
        <ele>1699</ele>
        <time>2020-07-03T09:39:23 02:00</time>
      </trkpt>
      <trkpt lat="42.67064" lon="2.09109">
        <ele>1700</ele>
        <time>2020-07-03T09:39:28 02:00</time>
      </trkpt>
      <trkpt lat="42.67074" lon="2.08986">
        <ele>1707</ele>
        <time>2020-07-03T09:39:33 02:00</time>
      </trkpt>
      <trkpt lat="42.67187" lon="2.08836">
        <ele>1705</ele>
        <time>2020-07-03T09:39:38 02:00</time>
      </trkpt>
      <trkpt lat="42.67195" lon="2.08767">
        <ele>1711</ele>
        <time>2020-07-03T09:39:43 02:00</time>
      </trkpt>
      <trkpt lat="42.67212" lon="2.08707">
        <ele>1713</ele>
        <time>2020-07-03T09:39:48 02:00</time>
      </trkpt>
      <trkpt lat="42.67234" lon="2.08498">
        <ele>1711</ele>
        <time>2020-07-03T09:39:53 02:00</time>
      </trkpt>
      <trkpt lat="42.67259" lon="2.08408">
        <ele>1716</ele>
        <time>2020-07-03T09:39:58 02:00</time>
      </trkpt>
      <trkpt lat="42.67332" lon="2.08348">
        <ele>1712</ele>
        <time>2020-07-03T09:40:03 02:00</time>
      </trkpt>
      <trkpt lat="42.67382" lon="2.08256">
        <ele>1716</ele>
        <time>2020-07-03T09:40:08 02:00</time>
      </trkpt>
      <trkpt lat="42.6743" lon="2.0814">
        <ele>1720</ele>
        <time>2020-07-03T09:40:13 02:00</time>
      </trkpt>
      <trkpt lat="42.67453" lon="2.08076">
        <ele>1723</ele>
        <time>2020-07-03T09:40:18 02:00</time>
      </trkpt>
      <trkpt lat="42.67418" lon="2.07996">
        <ele>1739</ele>
        <time>2020-07-03T09:40:23 02:00</time>
      </trkpt>
      <trkpt lat="42.67403" lon="2.07967">
        <ele>1749</ele>
        <time>2020-07-03T09:40:28 02:00</time>
      </trkpt>
      <trkpt lat="42.67384" lon="2.07938">
        <ele>1763</ele>
        <time>2020-07-03T09:40:33 02:00</time>
      </trkpt>
      <trkpt lat="42.6738" lon="2.07863">
        <ele>1774</ele>
        <time>2020-07-03T09:40:38 02:00</time>
      </trkpt>
      <trkpt lat="42.67359" lon="2.07828">
        <ele>1785</ele>
        <time>2020-07-03T09:40:43 02:00</time>
      </trkpt>
      <trkpt lat="42.6737" lon="2.0776">
        <ele>1795</ele>
        <time>2020-07-03T09:40:48 02:00</time>
      </trkpt>
      <trkpt lat="42.67326" lon="2.0771">
        <ele>1810</ele>
        <time>2020-07-03T09:40:53 02:00</time>
      </trkpt>
      <trkpt lat="42.67327" lon="2.07672">
        <ele>1815</ele>
        <time>2020-07-03T09:40:58 02:00</time>
      </trkpt>
      <trkpt lat="42.67338" lon="2.07635">
        <ele>1816</ele>
        <time>2020-07-03T09:41:03 02:00</time>
      </trkpt>
      <trkpt lat="42.67322" lon="2.07627">
        <ele>1821</ele>
        <time>2020-07-03T09:41:08 02:00</time>
      </trkpt>
      <trkpt lat="42.67313" lon="2.07604">
        <ele>1827</ele>
        <time>2020-07-03T09:41:13 02:00</time>
      </trkpt>
      <trkpt lat="42.6732" lon="2.0747">
        <ele>1839</ele>
        <time>2020-07-03T09:41:18 02:00</time>
      </trkpt>
      <trkpt lat="42.67322" lon="2.07399">
        <ele>1850</ele>
        <time>2020-07-03T09:41:23 02:00</time>
      </trkpt>
      <trkpt lat="42.67344" lon="2.07343">
        <ele>1855</ele>
        <time>2020-07-03T09:41:28 02:00</time>
      </trkpt>
      <trkpt lat="42.67348" lon="2.0731">
        <ele>1858</ele>
        <time>2020-07-03T09:41:33 02:00</time>
      </trkpt>
      <trkpt lat="42.67352" lon="2.07249">
        <ele>1867</ele>
        <time>2020-07-03T09:41:38 02:00</time>
      </trkpt>
      <trkpt lat="42.67371" lon="2.07144">
        <ele>1873</ele>
        <time>2020-07-03T09:41:43 02:00</time>
      </trkpt>
      <trkpt lat="42.67387" lon="2.07089">
        <ele>1875</ele>
        <time>2020-07-03T09:41:48 02:00</time>
      </trkpt>
      <trkpt lat="42.67406" lon="2.07027">
        <ele>1879</ele>
        <time>2020-07-03T09:41:53 02:00</time>
      </trkpt>
      <trkpt lat="42.67387" lon="2.07089">
        <ele>1875</ele>
        <time>2020-07-03T09:41:58 02:00</time>
      </trkpt>
      <trkpt lat="42.67371" lon="2.07144">
        <ele>1873</ele>
        <time>2020-07-03T09:42:03 02:00</time>
      </trkpt>
      <trkpt lat="42.67352" lon="2.07249">
        <ele>1867</ele>
        <time>2020-07-03T09:42:08 02:00</time>
      </trkpt>
      <trkpt lat="42.67348" lon="2.0731">
        <ele>1858</ele>
        <time>2020-07-03T09:42:13 02:00</time>
      </trkpt>
      <trkpt lat="42.67344" lon="2.07343">
        <ele>1855</ele>
        <time>2020-07-03T09:42:18 02:00</time>
      </trkpt>
      <trkpt lat="42.67322" lon="2.07399">
        <ele>1850</ele>
        <time>2020-07-03T09:42:23 02:00</time>
      </trkpt>
      <trkpt lat="42.6732" lon="2.0747">
        <ele>1839</ele>
        <time>2020-07-03T09:42:28 02:00</time>
      </trkpt>
      <trkpt lat="42.67313" lon="2.07604">
        <ele>1827</ele>
        <time>2020-07-03T09:42:33 02:00</time>
      </trkpt>
      <trkpt lat="42.67322" lon="2.07627">
        <ele>1821</ele>
        <time>2020-07-03T09:42:38 02:00</time>
      </trkpt>
      <trkpt lat="42.67338" lon="2.07635">
        <ele>1816</ele>
        <time>2020-07-03T09:42:43 02:00</time>
      </trkpt>
      <trkpt lat="42.67327" lon="2.07672">
        <ele>1815</ele>
        <time>2020-07-03T09:42:48 02:00</time>
      </trkpt>
      <trkpt lat="42.67326" lon="2.0771">
        <ele>1810</ele>
        <time>2020-07-03T09:42:53 02:00</time>
      </trkpt>
      <trkpt lat="42.6737" lon="2.0776">
        <ele>1795</ele>
        <time>2020-07-03T09:42:58 02:00</time>
      </trkpt>
      <trkpt lat="42.67359" lon="2.07828">
        <ele>1785</ele>
        <time>2020-07-03T09:43:03 02:00</time>
      </trkpt>
      <trkpt lat="42.6738" lon="2.07863">
        <ele>1774</ele>
        <time>2020-07-03T09:43:08 02:00</time>
      </trkpt>
      <trkpt lat="42.67384" lon="2.07938">
        <ele>1763</ele>
        <time>2020-07-03T09:43:13 02:00</time>
      </trkpt>
      <trkpt lat="42.67403" lon="2.07967">
        <ele>1749</ele>
        <time>2020-07-03T09:43:18 02:00</time>
      </trkpt>
      <trkpt lat="42.67418" lon="2.07996">
        <ele>1739</ele>
        <time>2020-07-03T09:43:23 02:00</time>
      </trkpt>
      <trkpt lat="42.67453" lon="2.08076">
        <ele>1723</ele>
        <time>2020-07-03T09:43:28 02:00</time>
      </trkpt>
      <trkpt lat="42.6743" lon="2.0814">
        <ele>1720</ele>
        <time>2020-07-03T09:43:33 02:00</time>
      </trkpt>
      <trkpt lat="42.67382" lon="2.08256">
        <ele>1716</ele>
        <time>2020-07-03T09:43:38 02:00</time>
      </trkpt>
      <trkpt lat="42.67332" lon="2.08348">
        <ele>1712</ele>
        <time>2020-07-03T09:43:43 02:00</time>
      </trkpt>
      <trkpt lat="42.67259" lon="2.08408">
        <ele>1716</ele>
        <time>2020-07-03T09:43:48 02:00</time>
      </trkpt>
      <trkpt lat="42.67234" lon="2.08498">
        <ele>1711</ele>
        <time>2020-07-03T09:43:53 02:00</time>
      </trkpt>
      <trkpt lat="42.67212" lon="2.08707">
        <ele>1713</ele>
        <time>2020-07-03T09:43:58 02:00</time>
      </trkpt>
      <trkpt lat="42.67195" lon="2.08767">
        <ele>1711</ele>
        <time>2020-07-03T09:44:03 02:00</time>
      </trkpt>
      <trkpt lat="42.67187" lon="2.08836">
        <ele>1705</ele>
        <time>2020-07-03T09:44:08 02:00</time>
      </trkpt>
      <trkpt lat="42.67074" lon="2.08986">
        <ele>1707</ele>
        <time>2020-07-03T09:44:13 02:00</time>
      </trkpt>
      <trkpt lat="42.67064" lon="2.09109">
        <ele>1700</ele>
        <time>2020-07-03T09:44:18 02:00</time>
      </trkpt>
      <trkpt lat="42.67043" lon="2.09148">
        <ele>1699</ele>
        <time>2020-07-03T09:44:23 02:00</time>
      </trkpt>
      <trkpt lat="42.66994" lon="2.09191">
        <ele>1704</ele>
        <time>2020-07-03T09:44:28 02:00</time>
      </trkpt>
      <trkpt lat="42.66984" lon="2.09235">
        <ele>1703</ele>
        <time>2020-07-03T09:44:33 02:00</time>
      </trkpt>
      <trkpt lat="42.66985" lon="2.09276">
        <ele>1700</ele>
        <time>2020-07-03T09:44:38 02:00</time>
      </trkpt>
      <trkpt lat="42.66961" lon="2.0941">
        <ele>1698</ele>
        <time>2020-07-03T09:44:43 02:00</time>
      </trkpt>
      <trkpt lat="42.66959" lon="2.09461">
        <ele>1697</ele>
        <time>2020-07-03T09:44:48 02:00</time>
      </trkpt>
      <trkpt lat="42.66963" lon="2.0952">
        <ele>1696</ele>
        <time>2020-07-03T09:44:53 02:00</time>
      </trkpt>
      <trkpt lat="42.67027" lon="2.09652">
        <ele>1690</ele>
        <time>2020-07-03T09:44:58 02:00</time>
      </trkpt>
      <trkpt lat="42.67061" lon="2.09694">
        <ele>1689</ele>
        <time>2020-07-03T09:45:03 02:00</time>
      </trkpt>
      <trkpt lat="42.67124" lon="2.09733">
        <ele>1688</ele>
        <time>2020-07-03T09:45:08 02:00</time>
      </trkpt>
      <trkpt lat="42.67155" lon="2.09742">
        <ele>1686</ele>
        <time>2020-07-03T09:45:13 02:00</time>
      </trkpt>
      <trkpt lat="42.67181" lon="2.09754">
        <ele>1685</ele>
        <time>2020-07-03T09:45:18 02:00</time>
      </trkpt>
      <trkpt lat="42.67209" lon="2.09767">
        <ele>1684</ele>
        <time>2020-07-03T09:45:23 02:00</time>
      </trkpt>
      <trkpt lat="42.67243" lon="2.09767">
        <ele>1682</ele>
        <time>2020-07-03T09:45:28 02:00</time>
      </trkpt>
      <trkpt lat="42.67273" lon="2.09757">
        <ele>1681</ele>
        <time>2020-07-03T09:45:33 02:00</time>
      </trkpt>
      <trkpt lat="42.67324" lon="2.09725">
        <ele>1680</ele>
        <time>2020-07-03T09:45:38 02:00</time>
      </trkpt>
      <trkpt lat="42.67373" lon="2.09724">
        <ele>1681</ele>
        <time>2020-07-03T09:45:43 02:00</time>
      </trkpt>
      <trkpt lat="42.67414" lon="2.09732">
        <ele>1681</ele>
        <time>2020-07-03T09:45:48 02:00</time>
      </trkpt>
      <trkpt lat="42.67442" lon="2.09768">
        <ele>1678</ele>
        <time>2020-07-03T09:45:53 02:00</time>
      </trkpt>
      <trkpt lat="42.67446" lon="2.09808">
        <ele>1674</ele>
        <time>2020-07-03T09:45:58 02:00</time>
      </trkpt>
      <trkpt lat="42.67404" lon="2.09939">
        <ele>1668</ele>
        <time>2020-07-03T09:46:03 02:00</time>
      </trkpt>
      <trkpt lat="42.6735" lon="2.10061">
        <ele>1662</ele>
        <time>2020-07-03T09:46:08 02:00</time>
      </trkpt>
      <trkpt lat="42.6736" lon="2.10106">
        <ele>1661</ele>
        <time>2020-07-03T09:46:13 02:00</time>
      </trkpt>
      <trkpt lat="42.67383" lon="2.10143">
        <ele>1659</ele>
        <time>2020-07-03T09:46:18 02:00</time>
      </trkpt>
      <trkpt lat="42.67449" lon="2.10179">
        <ele>1652</ele>
        <time>2020-07-03T09:46:23 02:00</time>
      </trkpt>
      <trkpt lat="42.67484" lon="2.10252">
        <ele>1648</ele>
        <time>2020-07-03T09:46:28 02:00</time>
      </trkpt>
      <trkpt lat="42.67475" lon="2.10327">
        <ele>1642</ele>
        <time>2020-07-03T09:46:33 02:00</time>
      </trkpt>
      <trkpt lat="42.6743" lon="2.10419">
        <ele>1637</ele>
        <time>2020-07-03T09:46:38 02:00</time>
      </trkpt>
      <trkpt lat="42.67383" lon="2.1049">
        <ele>1631</ele>
        <time>2020-07-03T09:46:43 02:00</time>
      </trkpt>
      <trkpt lat="42.67303" lon="2.10583">
        <ele>1623</ele>
        <time>2020-07-03T09:46:48 02:00</time>
      </trkpt>
      <trkpt lat="42.67288" lon="2.10724">
        <ele>1615</ele>
        <time>2020-07-03T09:46:53 02:00</time>
      </trkpt>
      <trkpt lat="42.67288" lon="2.10782">
        <ele>1611</ele>
        <time>2020-07-03T09:46:58 02:00</time>
      </trkpt>
      <trkpt lat="42.6728" lon="2.1087">
        <ele>1605</ele>
        <time>2020-07-03T09:47:03 02:00</time>
      </trkpt>
      <trkpt lat="42.67269" lon="2.10924">
        <ele>1601</ele>
        <time>2020-07-03T09:47:08 02:00</time>
      </trkpt>
      <trkpt lat="42.67235" lon="2.10984">
        <ele>1602</ele>
        <time>2020-07-03T09:47:13 02:00</time>
      </trkpt>
      <trkpt lat="42.67214" lon="2.1105">
        <ele>1597</ele>
        <time>2020-07-03T09:47:18 02:00</time>
      </trkpt>
      <trkpt lat="42.67229" lon="2.11149">
        <ele>1593</ele>
        <time>2020-07-03T09:47:23 02:00</time>
      </trkpt>
      <trkpt lat="42.67252" lon="2.1119">
        <ele>1589</ele>
        <time>2020-07-03T09:47:28 02:00</time>
      </trkpt>
      <trkpt lat="42.67265" lon="2.11325">
        <ele>1585</ele>
        <time>2020-07-03T09:47:33 02:00</time>
      </trkpt>
      <trkpt lat="42.67246" lon="2.1137">
        <ele>1585</ele>
        <time>2020-07-03T09:47:38 02:00</time>
      </trkpt>
      <trkpt lat="42.67188" lon="2.11492">
        <ele>1579</ele>
        <time>2020-07-03T09:47:43 02:00</time>
      </trkpt>
      <trkpt lat="42.67181" lon="2.11565">
        <ele>1573</ele>
        <time>2020-07-03T09:47:48 02:00</time>
      </trkpt>
      <trkpt lat="42.67191" lon="2.11618">
        <ele>1571</ele>
        <time>2020-07-03T09:47:53 02:00</time>
      </trkpt>
      <trkpt lat="42.67232" lon="2.11703">
        <ele>1565</ele>
        <time>2020-07-03T09:47:58 02:00</time>
      </trkpt>
      <trkpt lat="42.6727" lon="2.11735">
        <ele>1563</ele>
        <time>2020-07-03T09:48:03 02:00</time>
      </trkpt>
      <trkpt lat="42.67296" lon="2.11742">
        <ele>1561</ele>
        <time>2020-07-03T09:48:08 02:00</time>
      </trkpt>
      <trkpt lat="42.67336" lon="2.11758">
        <ele>1559</ele>
        <time>2020-07-03T09:48:13 02:00</time>
      </trkpt>
      <trkpt lat="42.67366" lon="2.1177">
        <ele>1558</ele>
        <time>2020-07-03T09:48:18 02:00</time>
      </trkpt>
      <trkpt lat="42.67397" lon="2.11769">
        <ele>1557</ele>
        <time>2020-07-03T09:48:23 02:00</time>
      </trkpt>
      <trkpt lat="42.67434" lon="2.11768">
        <ele>1554</ele>
        <time>2020-07-03T09:48:28 02:00</time>
      </trkpt>
      <trkpt lat="42.67429" lon="2.11814">
        <ele>1560</ele>
        <time>2020-07-03T09:48:33 02:00</time>
      </trkpt>
      <trkpt lat="42.67459" lon="2.1183">
        <ele>1562</ele>
        <time>2020-07-03T09:48:38 02:00</time>
      </trkpt>
      <trkpt lat="42.67468" lon="2.11843">
        <ele>1564</ele>
        <time>2020-07-03T09:48:43 02:00</time>
      </trkpt>
      <trkpt lat="42.67445" lon="2.11913">
        <ele>1571</ele>
        <time>2020-07-03T09:48:48 02:00</time>
      </trkpt>
      <trkpt lat="42.67426" lon="2.1193">
        <ele>1573</ele>
        <time>2020-07-03T09:48:53 02:00</time>
      </trkpt>
      <trkpt lat="42.67383" lon="2.1194">
        <ele>1576</ele>
        <time>2020-07-03T09:48:58 02:00</time>
      </trkpt>
      <trkpt lat="42.67322" lon="2.11933">
        <ele>1581</ele>
        <time>2020-07-03T09:49:03 02:00</time>
      </trkpt>
      <trkpt lat="42.6718" lon="2.11929">
        <ele>1581</ele>
        <time>2020-07-03T09:49:08 02:00</time>
      </trkpt>
      <trkpt lat="42.67049" lon="2.11933">
        <ele>1587</ele>
        <time>2020-07-03T09:49:13 02:00</time>
      </trkpt>
      <trkpt lat="42.67016" lon="2.11862">
        <ele>1590</ele>
        <time>2020-07-03T09:49:18 02:00</time>
      </trkpt>
      <trkpt lat="42.66986" lon="2.11849">
        <ele>1593</ele>
        <time>2020-07-03T09:49:23 02:00</time>
      </trkpt>
      <trkpt lat="42.66968" lon="2.11847">
        <ele>1594</ele>
        <time>2020-07-03T09:49:28 02:00</time>
      </trkpt>
      <trkpt lat="42.66933" lon="2.11861">
        <ele>1595</ele>
        <time>2020-07-03T09:49:33 02:00</time>
      </trkpt>
      <trkpt lat="42.66922" lon="2.1185">
        <ele>1596</ele>
        <time>2020-07-03T09:49:38 02:00</time>
      </trkpt>
      <trkpt lat="42.66892" lon="2.11843">
        <ele>1598</ele>
        <time>2020-07-03T09:49:43 02:00</time>
      </trkpt>
      <trkpt lat="42.66875" lon="2.11811">
        <ele>1601</ele>
        <time>2020-07-03T09:49:48 02:00</time>
      </trkpt>
      <trkpt lat="42.66808" lon="2.11704">
        <ele>1604</ele>
        <time>2020-07-03T09:49:53 02:00</time>
      </trkpt>
      <trkpt lat="42.66787" lon="2.11659">
        <ele>1600</ele>
        <time>2020-07-03T09:49:58 02:00</time>
      </trkpt>
      <trkpt lat="42.66757" lon="2.11642">
        <ele>1597</ele>
        <time>2020-07-03T09:50:03 02:00</time>
      </trkpt>
      <trkpt lat="42.66697" lon="2.11654">
        <ele>1586</ele>
        <time>2020-07-03T09:50:08 02:00</time>
      </trkpt>
      <trkpt lat="42.66674" lon="2.11631">
        <ele>1584</ele>
        <time>2020-07-03T09:50:13 02:00</time>
      </trkpt>
      <trkpt lat="42.66633" lon="2.1162">
        <ele>1580</ele>
        <time>2020-07-03T09:50:18 02:00</time>
      </trkpt>
      <trkpt lat="42.66586" lon="2.11643">
        <ele>1570</ele>
        <time>2020-07-03T09:50:23 02:00</time>
      </trkpt>
      <trkpt lat="42.66463" lon="2.11596">
        <ele>1569</ele>
        <time>2020-07-03T09:50:28 02:00</time>
      </trkpt>
      <trkpt lat="42.66436" lon="2.11567">
        <ele>1568</ele>
        <time>2020-07-03T09:50:33 02:00</time>
      </trkpt>
      <trkpt lat="42.66412" lon="2.11522">
        <ele>1573</ele>
        <time>2020-07-03T09:50:38 02:00</time>
      </trkpt>
      <trkpt lat="42.66324" lon="2.11475">
        <ele>1571</ele>
        <time>2020-07-03T09:50:43 02:00</time>
      </trkpt>
      <trkpt lat="42.6627" lon="2.11442">
        <ele>1576</ele>
        <time>2020-07-03T09:50:48 02:00</time>
      </trkpt>
      <trkpt lat="42.66252" lon="2.11392">
        <ele>1576</ele>
        <time>2020-07-03T09:50:53 02:00</time>
      </trkpt>
      <trkpt lat="42.66212" lon="2.11356">
        <ele>1569</ele>
        <time>2020-07-03T09:50:58 02:00</time>
      </trkpt>
      <trkpt lat="42.6619" lon="2.11338">
        <ele>1565</ele>
        <time>2020-07-03T09:51:03 02:00</time>
      </trkpt>
      <trkpt lat="42.66164" lon="2.11322">
        <ele>1560</ele>
        <time>2020-07-03T09:51:08 02:00</time>
      </trkpt>
      <trkpt lat="42.66127" lon="2.11323">
        <ele>1556</ele>
        <time>2020-07-03T09:51:13 02:00</time>
      </trkpt>
      <trkpt lat="42.66099" lon="2.11331">
        <ele>1553</ele>
        <time>2020-07-03T09:51:18 02:00</time>
      </trkpt>
      <trkpt lat="42.66067" lon="2.11384">
        <ele>1547</ele>
        <time>2020-07-03T09:51:23 02:00</time>
      </trkpt>
      <trkpt lat="42.66049" lon="2.11397">
        <ele>1544</ele>
        <time>2020-07-03T09:51:28 02:00</time>
      </trkpt>
      <trkpt lat="42.66036" lon="2.11339">
        <ele>1539</ele>
        <time>2020-07-03T09:51:33 02:00</time>
      </trkpt>
      <trkpt lat="42.66038" lon="2.11278">
        <ele>1537</ele>
        <time>2020-07-03T09:51:38 02:00</time>
      </trkpt>
      <trkpt lat="42.6602" lon="2.11209">
        <ele>1538</ele>
        <time>2020-07-03T09:51:43 02:00</time>
      </trkpt>
      <trkpt lat="42.66007" lon="2.11187">
        <ele>1537</ele>
        <time>2020-07-03T09:51:48 02:00</time>
      </trkpt>
      <trkpt lat="42.65988" lon="2.11195">
        <ele>1535</ele>
        <time>2020-07-03T09:51:53 02:00</time>
      </trkpt>
      <trkpt lat="42.6592" lon="2.11336">
        <ele>1528</ele>
        <time>2020-07-03T09:51:58 02:00</time>
      </trkpt>
      <trkpt lat="42.65823" lon="2.11364">
        <ele>1524</ele>
        <time>2020-07-03T09:52:03 02:00</time>
      </trkpt>
      <trkpt lat="42.65779" lon="2.11372">
        <ele>1525</ele>
        <time>2020-07-03T09:52:08 02:00</time>
      </trkpt>
      <trkpt lat="42.65732" lon="2.11373">
        <ele>1521</ele>
        <time>2020-07-03T09:52:13 02:00</time>
      </trkpt>
      <trkpt lat="42.65624" lon="2.11362">
        <ele>1520</ele>
        <time>2020-07-03T09:52:18 02:00</time>
      </trkpt>
      <trkpt lat="42.6557" lon="2.11369">
        <ele>1517</ele>
        <time>2020-07-03T09:52:23 02:00</time>
      </trkpt>
      <trkpt lat="42.65498" lon="2.11372">
        <ele>1510</ele>
        <time>2020-07-03T09:52:28 02:00</time>
      </trkpt>
      <trkpt lat="42.65425" lon="2.11396">
        <ele>1501</ele>
        <time>2020-07-03T09:52:33 02:00</time>
      </trkpt>
      <trkpt lat="42.65303" lon="2.11441">
        <ele>1485</ele>
        <time>2020-07-03T09:52:38 02:00</time>
      </trkpt>
      <trkpt lat="42.65267" lon="2.11434">
        <ele>1480</ele>
        <time>2020-07-03T09:52:43 02:00</time>
      </trkpt>
      <trkpt lat="42.6524" lon="2.11443">
        <ele>1478</ele>
        <time>2020-07-03T09:52:48 02:00</time>
      </trkpt>
      <trkpt lat="42.6512" lon="2.11522">
        <ele>1469</ele>
        <time>2020-07-03T09:52:53 02:00</time>
      </trkpt>
      <trkpt lat="42.65055" lon="2.11566">
        <ele>1464</ele>
        <time>2020-07-03T09:52:58 02:00</time>
      </trkpt>
      <trkpt lat="42.65021" lon="2.116">
        <ele>1459</ele>
        <time>2020-07-03T09:53:03 02:00</time>
      </trkpt>
      <trkpt lat="42.64997" lon="2.11639">
        <ele>1458</ele>
        <time>2020-07-03T09:53:08 02:00</time>
      </trkpt>
      <trkpt lat="42.64986" lon="2.11668">
        <ele>1458</ele>
        <time>2020-07-03T09:53:13 02:00</time>
      </trkpt>
      <trkpt lat="42.64972" lon="2.11677">
        <ele>1457</ele>
        <time>2020-07-03T09:53:18 02:00</time>
      </trkpt>
      <trkpt lat="42.64954" lon="2.11677">
        <ele>1456</ele>
        <time>2020-07-03T09:53:23 02:00</time>
      </trkpt>
      <trkpt lat="42.64877" lon="2.11648">
        <ele>1451</ele>
        <time>2020-07-03T09:53:28 02:00</time>
      </trkpt>
      <trkpt lat="42.64895" lon="2.11615">
        <ele>1452</ele>
        <time>2020-07-03T09:53:33 02:00</time>
      </trkpt>
    </trkseg>
  </trk>
</gpx>